Schedule Details


Flight Number: CTN490
Departure: Franjo Tudman (LDZA) at 17:50
Arrival: Heathrow (EGLL) at 19:15
Route: PODET DCT KLAGY DCT ERKIR UL608 TEDGO UZ210 LIRSU UL608 COA L179 SASKI L608 LOGAN

Weather Information
LDZA 172300Z 00000KT CAVOK 18/15 Q1017 NOSIG
EGLL 172250Z AUTO 05005KT 310V090 9999 BKN007 OVC038 17/16 Q1014 TEMPO SCT007
Schedule Frequency

Route Map